QTR766 OTHH-KMIA
Flight info
| Callsign | QTR766 |
|---|---|
| Flight time | N/A |
| Altitude | 34000 |
| Route | TULUB2W TULUB B457 NARMI N697 HIL T540 ENABI L550 NOVPA J981 DATOK L550 GENIV L324 LAKTO DCT OTHON UN128 YOYYO UN618 IMR UN128 LMO DCT EVIVI L863 OKANA DCT NIVIS DCT BABIT DCT SOGMO DCT SASAL DCT DEXIT DCT RUDNO DCT SULUS L604 MAPOX DCT RAVLO Y70 OTBED L60 PENIL M144 BAGSO DCT NEBIN/M085F360 NATG TUDEP/N0494F360 N522E ALLEX/N0500F380 DCT FOXBO DCT RIFLE DCT HEADI Q97 KALDA DCT BGBRD Q101 SKARP Y313 HOAGG BNFSH3 |
| Aircraft | A35K/H-SDE2E3GHIJ3J4J5LM1ORWXY/LB1D1 |
Departure
| Time | N/A |
|---|---|
| Airport | Hamad International Airport (OTHH) |
Arrival
| Time | 2026-05-03 23:44 |
|---|---|
| Airport | Miami International Airport (KMIA) |
| Time | Latitude | Longitude | Altitude | Speed | Heading |
|---|---|---|---|---|---|
| 2026-05-03 23:18 | 26.31908 | -79.91848 | 14045 ft | 284 kts | 236° |
| 2026-05-03 23:18 | 26.30778 | -79.93653 | 13847 ft | 284 kts | 236° |
| 2026-05-03 23:18 | 26.29648 | -79.95460 | 13654 ft | 284 kts | 236° |
| 2026-05-03 23:19 | 26.28518 | -79.97263 | 13465 ft | 283 kts | 236° |
| 2026-05-03 23:19 | 26.27392 | -79.99059 | 13296 ft | 283 kts | 237° |
| 2026-05-03 23:19 | 26.26219 | -80.00810 | 13113 ft | 283 kts | 230° |
| 2026-05-03 23:19 | 26.24666 | -80.02164 | 12938 ft | 288 kts | 210° |
| 2026-05-03 23:20 | 26.22749 | -80.02854 | 12764 ft | 292 kts | 197° |
| 2026-05-03 23:20 | 26.20753 | -80.03305 | 12572 ft | 293 kts | 195° |
| 2026-05-03 23:20 | 26.18840 | -80.03719 | 12389 ft | 294 kts | 195° |
| 2026-05-03 23:20 | 26.16834 | -80.04162 | 12229 ft | 293 kts | 195° |
| 2026-05-03 23:21 | 26.14840 | -80.04608 | 12035 ft | 292 kts | 195° |
| 2026-05-03 23:21 | 26.12850 | -80.05058 | 11865 ft | 291 kts | 195° |
| 2026-05-03 23:21 | 26.10863 | -80.05509 | 11664 ft | 291 kts | 195° |
| 2026-05-03 23:21 | 26.08883 | -80.05959 | 11494 ft | 290 kts | 195° |
| 2026-05-03 23:22 | 26.04944 | -80.06886 | 11135 ft | 288 kts | 197° |
| 2026-05-03 23:22 | 26.02997 | -80.07401 | 10947 ft | 287 kts | 197° |
| 2026-05-03 23:22 | 26.01057 | -80.07916 | 10783 ft | 287 kts | 197° |
| 2026-05-03 23:23 | 25.99118 | -80.08426 | 10605 ft | 286 kts | 197° |
| 2026-05-03 23:23 | 25.97185 | -80.08932 | 10428 ft | 286 kts | 197° |
| 2026-05-03 23:23 | 25.95246 | -80.09437 | 10254 ft | 285 kts | 197° |
| 2026-05-03 23:23 | 25.93315 | -80.09943 | 10076 ft | 284 kts | 197° |
| 2026-05-03 23:24 | 25.91471 | -80.10671 | 9885 ft | 280 kts | 208° |
| 2026-05-03 23:24 | 25.89736 | -80.11644 | 9707 ft | 278 kts | 211° |
| 2026-05-03 23:24 | 25.88027 | -80.12644 | 9547 ft | 278 kts | 211° |
| 2026-05-03 23:24 | 25.86339 | -80.13629 | 9351 ft | 277 kts | 211° |
| 2026-05-03 23:25 | 25.84609 | -80.14633 | 9197 ft | 277 kts | 210° |
| 2026-05-03 23:25 | 25.82933 | -80.15605 | 9026 ft | 277 kts | 210° |
| 2026-05-03 23:25 | 25.81225 | -80.16592 | 8859 ft | 275 kts | 211° |
| 2026-05-03 23:25 | 25.79557 | -80.17555 | 8689 ft | 275 kts | 211° |
| 2026-05-03 23:26 | 25.77865 | -80.18532 | 8520 ft | 274 kts | 211° |
| 2026-05-03 23:26 | 25.76174 | -80.19509 | 8333 ft | 274 kts | 211° |
| 2026-05-03 23:26 | 25.74483 | -80.20495 | 7858 ft | 274 kts | 212° |
| 2026-05-03 23:26 | 25.72999 | -80.21772 | 7450 ft | 267 kts | 231° |
| 2026-05-03 23:27 | 25.72104 | -80.23535 | 7031 ft | 263 kts | 252° |
| 2026-05-03 23:27 | 25.71648 | -80.25490 | 6609 ft | 262 kts | 258° |
| 2026-05-03 23:27 | 25.71290 | -80.27462 | 6182 ft | 261 kts | 261° |
| 2026-05-03 23:27 | 25.71134 | -80.29460 | 5732 ft | 260 kts | 266° |
| 2026-05-03 23:28 | 25.71066 | -80.30997 | 5340 ft | 261 kts | 267° |
| 2026-05-03 23:28 | 25.70983 | -80.33013 | 4837 ft | 262 kts | 267° |
| 2026-05-03 23:28 | 25.70899 | -80.35030 | 4405 ft | 261 kts | 267° |
| 2026-05-03 23:28 | 25.70810 | -80.37027 | 4080 ft | 256 kts | 267° |
| 2026-05-03 23:29 | 25.70720 | -80.38989 | 3993 ft | 256 kts | 267° |
| 2026-05-03 23:29 | 25.70627 | -80.40968 | 3991 ft | 258 kts | 267° |
| 2026-05-03 23:29 | 25.70538 | -80.42953 | 3993 ft | 257 kts | 267° |
| 2026-05-03 23:29 | 25.70437 | -80.44933 | 3990 ft | 258 kts | 265° |
| 2026-05-03 23:30 | 25.70268 | -80.46917 | 4003 ft | 258 kts | 264° |
| 2026-05-03 23:30 | 25.70084 | -80.48896 | 3993 ft | 258 kts | 265° |
| 2026-05-03 23:30 | 25.69908 | -80.50870 | 3998 ft | 259 kts | 265° |
| 2026-05-03 23:30 | 25.69725 | -80.52864 | 3995 ft | 259 kts | 264° |
| 2026-05-03 23:31 | 25.69556 | -80.54852 | 4001 ft | 259 kts | 264° |
| 2026-05-03 23:31 | 25.69392 | -80.56864 | 3992 ft | 264 kts | 266° |
| 2026-05-03 23:31 | 25.69229 | -80.58875 | 3987 ft | 258 kts | 264° |
| 2026-05-03 23:31 | 25.69044 | -80.60852 | 3981 ft | 258 kts | 264° |
| 2026-05-03 23:32 | 25.69108 | -80.62837 | 3984 ft | 260 kts | 284° |
| 2026-05-03 23:32 | 25.69956 | -80.64582 | 3990 ft | 261 kts | 311° |
| 2026-05-03 23:32 | 25.71468 | -80.65693 | 3995 ft | 265 kts | 338° |
| 2026-05-03 23:32 | 25.73282 | -80.65908 | 3994 ft | 271 kts | 5° |
| 2026-05-03 23:33 | 25.75045 | -80.65172 | 3991 ft | 275 kts | 33° |
| 2026-05-03 23:33 | 25.76415 | -80.63693 | 3996 ft | 277 kts | 50° |
| 2026-05-03 23:33 | 25.77580 | -80.61976 | 3988 ft | 280 kts | 53° |
| 2026-05-03 23:33 | 25.78719 | -80.60223 | 3994 ft | 280 kts | 52° |
| 2026-05-03 23:34 | 25.79858 | -80.58460 | 3997 ft | 282 kts | 54° |
| 2026-05-03 23:34 | 25.80991 | -80.56685 | 3989 ft | 282 kts | 56° |
| 2026-05-03 23:34 | 25.81891 | -80.54751 | 3995 ft | 283 kts | 62° |
| 2026-05-03 23:34 | 25.83075 | -80.53015 | 3982 ft | 282 kts | 39° |
| 2026-05-03 23:35 | 25.84757 | -80.52012 | 4003 ft | 272 kts | 13° |
| 2026-05-03 23:35 | 25.86618 | -80.51932 | 3993 ft | 268 kts | 345° |
| 2026-05-03 23:35 | 25.88274 | -80.52786 | 3993 ft | 262 kts | 319° |
| 2026-05-03 23:35 | 25.89406 | -80.54337 | 4000 ft | 259 kts | 297° |
| 2026-05-03 23:36 | 25.90204 | -80.56132 | 3999 ft | 261 kts | 293° |
| 2026-05-03 23:36 | 25.90945 | -80.57974 | 3998 ft | 261 kts | 293° |
| 2026-05-03 23:36 | 25.91454 | -80.59896 | 3994 ft | 261 kts | 274° |
| 2026-05-03 23:36 | 25.91167 | -80.61853 | 4000 ft | 259 kts | 247° |
| 2026-05-03 23:37 | 25.90080 | -80.63431 | 4000 ft | 261 kts | 219° |
| 2026-05-03 23:37 | 25.88438 | -80.64270 | 4000 ft | 264 kts | 192° |
| 2026-05-03 23:37 | 25.86591 | -80.64281 | 4002 ft | 268 kts | 176° |
| 2026-05-03 23:37 | 25.84754 | -80.63892 | 3995 ft | 271 kts | 165° |
| 2026-05-03 23:38 | 25.83092 | -80.62909 | 3859 ft | 273 kts | 142° |
| 2026-05-03 23:38 | 25.81970 | -80.61238 | 3352 ft | 274 kts | 111° |
| 2026-05-03 23:38 | 25.81333 | -80.59255 | 3072 ft | 272 kts | 116° |
| 2026-05-03 23:38 | 25.80491 | -80.57359 | 3012 ft | 276 kts | 118° |
| 2026-05-03 23:39 | 25.79652 | -80.55436 | 2981 ft | 278 kts | 115° |
| 2026-05-03 23:39 | 25.79178 | -80.53426 | 2969 ft | 261 kts | 96° |
| 2026-05-03 23:39 | 25.79188 | -80.51487 | 2982 ft | 242 kts | 85° |
| 2026-05-03 23:39 | 25.79288 | -80.49695 | 3028 ft | 222 kts | 87° |
| 2026-05-03 23:40 | 25.79338 | -80.48064 | 3043 ft | 202 kts | 88° |
| 2026-05-03 23:40 | 25.79387 | -80.46597 | 2936 ft | 186 kts | 87° |
| 2026-05-03 23:40 | 25.79445 | -80.45203 | 2664 ft | 176 kts | 87° |
| 2026-05-03 23:40 | 25.79500 | -80.43873 | 2395 ft | 169 kts | 87° |
| 2026-05-03 23:41 | 25.79552 | -80.42609 | 2159 ft | 159 kts | 87° |
| 2026-05-03 23:41 | 25.79602 | -80.41414 | 1949 ft | 151 kts | 86° |
| 2026-05-03 23:41 | 25.79648 | -80.40260 | 1764 ft | 146 kts | 86° |
| 2026-05-03 23:41 | 25.79695 | -80.39151 | 1574 ft | 145 kts | 86° |
| 2026-05-03 23:42 | 25.79742 | -80.38031 | 1374 ft | 145 kts | 85° |
| 2026-05-03 23:42 | 25.79789 | -80.36914 | 1186 ft | 145 kts | 85° |
| 2026-05-03 23:42 | 25.79835 | -80.35797 | 996 ft | 145 kts | 85° |
| 2026-05-03 23:42 | 25.79881 | -80.34684 | 813 ft | 143 kts | 85° |
| 2026-05-03 23:43 | 25.79927 | -80.33586 | 643 ft | 142 kts | 86° |
| 2026-05-03 23:43 | 25.79970 | -80.32493 | 476 ft | 140 kts | 85° |
| 2026-05-03 23:43 | 25.80020 | -80.31413 | 247 ft | 136 kts | 84° |
| 2026-05-03 23:43 | 25.80056 | -80.30366 | 92 ft | 137 kts | 84° |
| 2026-05-03 23:44 | 25.80112 | -80.29325 | 27 ft | 129 kts | 88° |
| 2026-05-03 23:44 | 25.80137 | -80.28487 | 25 ft | 85 kts | 89° |
| 2026-05-03 23:44 | 25.80148 | -80.28098 | 19 ft | 33 kts | 92° |
| 2026-05-03 23:44 | 25.80109 | -80.27988 | 23 ft | 10 kts | 125° |
| 2026-05-03 23:45 | 25.80066 | -80.27930 | 21 ft | 8 kts | 144° |
| 2026-05-03 23:45 | 25.80042 | -80.27924 | 20 ft | 0 kts | 178° |
| 2026-05-03 23:45 | 25.80037 | -80.27927 | 23 ft | 2 kts | 205° |
| 2026-05-03 23:45 | 25.80035 | -80.27937 | 21 ft | 1 kts | 252° |
| 2026-05-03 23:46 | 25.80043 | -80.28026 | 20 ft | 20 kts | 263° |
| 2026-05-03 23:46 | 25.80039 | -80.28176 | 24 ft | 20 kts | 268° |
| 2026-05-03 23:46 | 25.80033 | -80.28336 | 21 ft | 22 kts | 268° |
| 2026-05-03 23:46 | 25.80029 | -80.28507 | 21 ft | 20 kts | 270° |
| 2026-05-03 23:47 | 25.80025 | -80.28618 | 24 ft | 10 kts | 263° |
| 2026-05-03 23:47 | 25.80016 | -80.28701 | 23 ft | 12 kts | 263° |
| 2026-05-03 23:47 | 25.80015 | -80.28791 | 25 ft | 7 kts | 268° |
| 2026-05-03 23:47 | 25.80015 | -80.28795 | 25 ft | 1 kts | 265° |
| 2026-05-03 23:48 | 25.79965 | -80.28838 | 25 ft | 19 kts | 180° |
| 2026-05-03 23:48 | 25.79837 | -80.28824 | 23 ft | 18 kts | 179° |
| 2026-05-03 23:48 | 25.79718 | -80.28820 | 23 ft | 17 kts | 177° |
| 2026-05-03 23:48 | 25.79597 | -80.28813 | 22 ft | 17 kts | 177° |
| 2026-05-03 23:49 | 25.79483 | -80.28806 | 23 ft | 16 kts | 175° |
| 2026-05-03 23:49 | 25.79384 | -80.28801 | 22 ft | 15 kts | 179° |
| 2026-05-03 23:49 | 25.79306 | -80.28759 | 22 ft | 19 kts | 133° |
| 2026-05-03 23:49 | 25.79212 | -80.28587 | 22 ft | 21 kts | 119° |
| 2026-05-03 23:50 | 25.79156 | -80.28477 | 25 ft | 20 kts | 120° |
| 2026-05-03 23:50 | 25.79104 | -80.28397 | 24 ft | 18 kts | 127° |
| 2026-05-03 23:50 | 25.79025 | -80.28246 | 25 ft | 16 kts | 120° |
| 2026-05-03 23:50 | 25.78978 | -80.28157 | 26 ft | 5 kts | 117° |
| 2026-05-03 23:51 | 25.78981 | -80.28135 | 25 ft | 3 kts | 58° |
| 2026-05-03 23:51 | 25.79033 | -80.28110 | 24 ft | 5 kts | 0° |
| 2026-05-03 23:51 | 25.79075 | -80.28200 | 25 ft | 25 kts | 299° |
| 2026-05-03 23:51 | 25.79171 | -80.28361 | 23 ft | 25 kts | 310° |
| 2026-05-03 23:52 | 25.79268 | -80.28509 | 21 ft | 21 kts | 307° |
| 2026-05-03 23:52 | 25.79316 | -80.28541 | 23 ft | 2 kts | 6° |
| 2026-05-03 23:52 | 25.79320 | -80.28537 | 24 ft | 0 kts | 31° |
| 2026-05-03 23:52 | 25.79330 | -80.28531 | 26 ft | 3 kts | 30° |
| 2026-05-03 23:53 | 25.79339 | -80.28525 | 22 ft | 1 kts | 30° |
| 2026-05-03 23:53 | 25.79372 | -80.28499 | 25 ft | 10 kts | 38° |
| 2026-05-03 23:53 | 25.79399 | -80.28474 | 25 ft | 2 kts | 41° |
| 2026-05-03 23:53 | 25.79404 | -80.28469 | 25 ft | 1 kts | 41° |